createdAt,value
2023-01-20T00:01:47.229Z,74.71
2023-01-20T00:04:18.440Z,74.96
2023-01-20T00:06:47.034Z,75.11
2023-01-20T00:09:17.326Z,75.18
2023-01-20T00:11:45.719Z,75.19
2023-01-20T00:14:13.569Z,75.15
2023-01-20T00:16:41.835Z,75.09
2023-01-20T00:19:13.746Z,75.36
2023-01-20T00:21:42.384Z,75.46
2023-01-20T00:24:10.383Z,75.38
2023-01-20T00:26:38.296Z,75.33
2023-01-20T00:29:06.077Z,75.37
2023-01-20T00:31:35.565Z,75.23
2023-01-20T00:34:03.641Z,75.13
2023-01-20T00:36:32.296Z,75.03
2023-01-20T00:39:02.318Z,75.04
2023-01-20T00:41:30.540Z,75.05
2023-01-20T00:43:58.502Z,75.01
2023-01-20T00:46:27.020Z,74.93
2023-01-20T00:48:55.208Z,74.93
2023-01-20T00:51:23.199Z,74.88
2023-01-20T00:53:51.260Z,74.88
2023-01-20T00:56:19.191Z,74.85
2023-01-20T00:58:47.763Z,74.89
2023-01-20T01:01:15.711Z,74.81
2023-01-20T01:03:43.921Z,74.87
2023-01-20T01:06:16.240Z,74.88
2023-01-20T01:08:44.016Z,74.95
2023-01-20T01:11:13.178Z,74.97
2023-01-20T01:13:41.425Z,75.00
2023-01-20T01:16:12.425Z,74.92
2023-01-20T01:18:41.454Z,75.05
2023-01-20T01:21:12.565Z,75.04
2023-01-20T01:23:40.629Z,74.93
2023-01-20T01:26:09.941Z,74.86
2023-01-20T01:28:38.321Z,74.93
2023-01-20T01:31:07.654Z,74.90
2023-01-20T01:33:36.139Z,74.89
2023-01-20T01:36:04.911Z,74.88
2023-01-20T01:38:32.734Z,74.99
2023-01-20T01:41:01.051Z,74.93
2023-01-20T01:43:32.298Z,74.97
2023-01-20T01:46:00.759Z,74.91
2023-01-20T01:48:43.216Z,74.94
2023-01-20T01:51:27.969Z,74.94
2023-01-20T01:53:59.680Z,75.04
2023-01-20T01:56:29.488Z,75.00
2023-01-20T01:59:02.087Z,75.05
2023-01-20T02:01:34.709Z,75.08
2023-01-20T02:04:13.222Z,75.03
2023-01-20T02:06:59.124Z,75.01
2023-01-20T02:09:28.662Z,74.97
2023-01-20T02:12:01.879Z,75.00
2023-01-20T02:14:45.471Z,74.96
2023-01-20T02:17:30.757Z,75.00
2023-01-20T02:20:35.748Z,75.10
2023-01-20T02:23:56.005Z,75.07
2023-01-20T02:26:44.603Z,75.21
2023-01-20T02:29:30.699Z,75.33
2023-01-20T02:32:44.077Z,75.40
2023-01-20T02:35:45.679Z,75.37
2023-01-20T02:38:45.498Z,75.38
2023-01-20T02:41:34.775Z,75.33
2023-01-20T02:44:35.954Z,75.16
2023-01-20T02:47:36.675Z,75.13
2023-01-20T02:50:19.841Z,75.12
2023-01-20T02:52:57.303Z,75.10
2023-01-20T02:55:40.422Z,75.07
2023-01-20T02:58:37.555Z,75.07
2023-01-20T03:01:32.418Z,75.11
2023-01-20T03:04:03.277Z,75.09
2023-01-20T03:06:45.895Z,75.02
2023-01-20T03:09:20.823Z,74.98
2023-01-20T03:11:57.413Z,75.04
2023-01-20T03:14:25.665Z,75.05
2023-01-20T03:16:53.802Z,74.97
2023-01-20T03:19:21.709Z,75.02
2023-01-20T03:21:49.722Z,75.05
2023-01-20T03:24:17.600Z,75.07
2023-01-20T03:26:45.691Z,74.93
2023-01-20T03:29:15.425Z,74.92
2023-01-20T03:31:58.438Z,75.06
2023-01-20T03:34:31.081Z,75.10
2023-01-20T03:37:00.351Z,75.16
2023-01-20T03:39:28.759Z,75.14
2023-01-20T03:42:07.265Z,75.15
2023-01-20T03:45:04.915Z,75.08
2023-01-20T03:48:17.205Z,75.18
2023-01-20T03:50:53.787Z,75.15
2023-01-20T03:53:58.107Z,75.24
2023-01-20T03:56:46.086Z,75.34
2023-01-20T03:59:16.644Z,75.25
2023-01-20T04:01:44.908Z,75.25
2023-01-20T04:04:18.611Z,75.32
2023-01-20T04:06:50.061Z,75.38
2023-01-20T04:09:26.286Z,75.40
2023-01-20T04:11:55.067Z,75.33
2023-01-20T04:14:23.018Z,75.37
2023-01-20T04:16:55.238Z,75.37
2023-01-20T04:19:24.457Z,75.47
2023-01-20T04:22:29.817Z,75.53
2023-01-20T04:25:14.244Z,75.60
2023-01-20T04:27:42.188Z,75.65
2023-01-20T04:30:12.264Z,75.58
2023-01-20T04:32:40.162Z,75.61
2023-01-20T04:35:19.722Z,75.67
2023-01-20T04:37:47.747Z,75.58
2023-01-20T04:40:15.912Z,75.65
2023-01-20T04:42:43.782Z,75.67
2023-01-20T04:45:16.347Z,75.74
2023-01-20T04:47:44.414Z,75.69
2023-01-20T04:50:14.545Z,75.63
2023-01-20T04:52:43.270Z,75.62
2023-01-20T04:55:11.939Z,75.56
2023-01-20T04:57:40.043Z,75.49
2023-01-20T05:00:08.793Z,75.51
2023-01-20T05:02:36.653Z,75.63
2023-01-20T05:05:04.797Z,75.72
2023-01-20T05:07:32.577Z,75.72
2023-01-20T05:10:00.331Z,75.75
2023-01-20T05:12:28.351Z,75.61
2023-01-20T05:14:56.121Z,75.66
2023-01-20T05:17:23.907Z,75.71
2023-01-20T05:19:51.760Z,75.56
2023-01-20T05:22:19.724Z,75.49
2023-01-20T05:24:47.649Z,75.42
2023-01-20T05:27:15.556Z,75.43
2023-01-20T05:29:43.230Z,75.43
2023-01-20T05:32:11.156Z,75.41
2023-01-20T05:34:38.790Z,75.35
2023-01-20T05:37:18.556Z,75.55
2023-01-20T05:39:46.468Z,75.41
2023-01-20T05:42:15.191Z,75.34
2023-01-20T05:44:43.388Z,75.44
2023-01-20T05:47:11.624Z,75.32
2023-01-20T05:49:39.584Z,75.26
2023-01-20T05:52:07.412Z,75.35
2023-01-20T05:54:35.711Z,75.41
2023-01-20T05:57:05.048Z,75.44
2023-01-20T05:59:34.297Z,75.40
2023-01-20T06:02:02.168Z,75.44
2023-01-20T06:04:30.036Z,75.33
2023-01-20T06:06:58.018Z,75.23
2023-01-20T06:09:26.009Z,75.19
2023-01-20T06:11:53.916Z,75.18
2023-01-20T06:14:21.718Z,75.19
2023-01-20T06:16:49.690Z,75.27
2023-01-20T06:19:17.741Z,75.24
2023-01-20T06:21:47.553Z,75.33
2023-01-20T06:24:15.514Z,75.48
2023-01-20T06:26:44.442Z,75.40
2023-01-20T06:29:12.314Z,75.48
2023-01-20T06:31:40.390Z,75.53
2023-01-20T06:34:08.244Z,75.58
2023-01-20T06:36:36.257Z,75.44
2023-01-20T06:39:04.476Z,75.42
2023-01-20T06:41:32.625Z,75.42
2023-01-20T06:44:00.621Z,75.33
2023-01-20T06:46:28.464Z,75.37
2023-01-20T06:48:59.839Z,75.38
2023-01-20T06:51:29.968Z,75.40
2023-01-20T06:54:00.744Z,75.46
2023-01-20T06:56:28.530Z,75.42
2023-01-20T06:58:56.357Z,75.44
2023-01-20T07:01:31.549Z,75.45
2023-01-20T07:04:00.216Z,75.43
2023-01-20T07:06:35.254Z,75.53
2023-01-20T07:09:04.993Z,75.55
2023-01-20T07:11:36.791Z,75.57
2023-01-20T07:14:06.813Z,75.49
2023-01-20T07:16:35.886Z,75.49
2023-01-20T07:19:04.806Z,75.52
2023-01-20T07:21:33.082Z,75.58
2023-01-20T07:24:02.090Z,75.52
2023-01-20T07:26:30.864Z,75.60
2023-01-20T07:28:58.937Z,75.59
2023-01-20T07:31:28.960Z,75.68
2023-01-20T07:33:57.694Z,75.68
2023-01-20T07:36:26.123Z,75.70
2023-01-20T07:38:54.139Z,75.81
2023-01-20T07:41:22.128Z,75.85
2023-01-20T07:43:52.088Z,75.84
2023-01-20T07:46:20.491Z,75.97
2023-01-20T07:48:49.015Z,76.12
2023-01-20T07:51:17.993Z,76.13
2023-01-20T07:53:48.672Z,76.01
2023-01-20T07:56:26.973Z,76.00
2023-01-20T07:58:55.590Z,76.18
2023-01-20T08:01:29.745Z,76.23
2023-01-20T08:04:02.021Z,76.21
2023-01-20T08:06:30.270Z,76.09
2023-01-20T08:09:01.861Z,76.14
2023-01-20T08:11:31.641Z,76.16
2023-01-20T08:13:59.559Z,76.18
2023-01-20T08:16:27.409Z,76.02
2023-01-20T08:18:55.354Z,76.00
2023-01-20T08:21:30.098Z,75.85
2023-01-20T08:24:01.013Z,75.66
2023-01-20T08:26:30.139Z,75.61
2023-01-20T08:29:06.352Z,75.51
2023-01-20T08:31:35.606Z,75.41
2023-01-20T08:34:04.821Z,75.21
2023-01-20T08:36:36.369Z,75.20
2023-01-20T08:39:08.102Z,75.06
2023-01-20T08:41:39.121Z,74.95
2023-01-20T08:44:10.148Z,74.70
2023-01-20T08:46:41.801Z,74.50
2023-01-20T08:49:14.408Z,74.33
2023-01-20T08:51:44.249Z,74.32
2023-01-20T08:54:12.211Z,74.13
2023-01-20T08:56:40.527Z,73.84
2023-01-20T08:59:08.329Z,73.78
2023-01-20T09:01:37.278Z,73.78
2023-01-20T09:04:07.433Z,73.80
2023-01-20T09:06:46.040Z,73.55
2023-01-20T09:09:17.514Z,73.57
2023-01-20T09:11:51.569Z,73.35
2023-01-20T09:14:22.799Z,73.26
2023-01-20T09:16:51.366Z,73.18
2023-01-20T09:19:19.323Z,73.01
2023-01-20T09:21:47.527Z,72.52
2023-01-20T09:24:15.564Z,72.21
2023-01-20T09:26:44.393Z,72.06
2023-01-20T09:29:15.441Z,71.75
2023-01-20T09:31:49.916Z,71.68
2023-01-20T09:34:23.744Z,71.59
2023-01-20T09:36:58.323Z,71.42
2023-01-20T09:39:44.829Z,71.28
2023-01-20T09:42:57.035Z,71.03
2023-01-20T09:45:51.174Z,70.87
2023-01-20T09:49:04.128Z,70.77
2023-01-20T09:51:59.951Z,70.57
2023-01-20T09:54:38.116Z,70.48
2023-01-20T09:57:08.323Z,70.23
2023-01-20T09:59:44.167Z,69.96
2023-01-20T10:02:24.854Z,69.78
2023-01-20T10:05:00.058Z,69.55
2023-01-20T10:08:10.823Z,69.36
2023-01-20T10:11:07.907Z,69.01
2023-01-20T10:13:55.854Z,68.96
2023-01-20T10:16:37.470Z,68.90
2023-01-20T10:19:30.037Z,68.68
2023-01-20T10:22:17.357Z,68.51
2023-01-20T10:25:08.212Z,68.63
2023-01-20T10:27:41.899Z,68.45
2023-01-20T10:30:13.731Z,68.16
2023-01-20T10:33:10.264Z,67.97
2023-01-20T10:35:46.559Z,67.69
2023-01-20T10:39:05.169Z,67.19
2023-01-20T10:41:46.944Z,67.06
2023-01-20T10:44:16.010Z,66.82
2023-01-20T10:47:19.494Z,66.89
2023-01-20T10:49:56.790Z,66.70
2023-01-20T10:52:58.100Z,66.20
2023-01-20T10:55:47.780Z,65.89
2023-01-20T10:58:42.979Z,65.62
2023-01-20T11:01:16.918Z,65.50
2023-01-20T11:03:49.024Z,65.21
2023-01-20T11:06:22.829Z,65.04
2023-01-20T11:08:50.806Z,64.62
2023-01-20T11:11:23.324Z,64.26
2023-01-20T11:13:52.413Z,64.35
2023-01-20T11:16:24.880Z,64.00
2023-01-20T11:19:03.037Z,63.57
2023-01-20T11:21:36.252Z,62.87
2023-01-20T11:24:33.223Z,62.71
2023-01-20T11:27:15.752Z,62.04
2023-01-20T11:29:52.580Z,61.81
2023-01-20T11:32:39.672Z,61.79
2023-01-20T11:35:25.829Z,61.85
2023-01-20T11:37:53.683Z,61.83
2023-01-20T11:40:25.981Z,61.82
2023-01-20T11:42:54.859Z,61.89
2023-01-20T11:45:30.541Z,62.01
2023-01-20T11:48:15.942Z,61.99
2023-01-20T11:50:49.812Z,62.02
2023-01-20T11:53:33.289Z,62.18
2023-01-20T11:56:17.774Z,62.33
2023-01-20T11:59:31.875Z,62.77
2023-01-20T12:02:01.317Z,62.99
2023-01-20T12:04:48.519Z,63.15
2023-01-20T12:07:31.834Z,63.48
2023-01-20T12:10:33.877Z,63.69
2023-01-20T12:13:22.313Z,63.50
2023-01-20T12:16:00.742Z,63.50
2023-01-20T12:19:01.111Z,63.62
2023-01-20T12:21:43.348Z,63.46
2023-01-20T12:24:38.690Z,63.43
2023-01-20T12:27:25.189Z,63.64
2023-01-20T12:29:59.753Z,63.63
2023-01-20T12:32:28.744Z,63.59
2023-01-20T12:34:57.438Z,63.52
2023-01-20T12:37:52.693Z,63.45
2023-01-20T12:40:38.425Z,63.37
2023-01-20T12:43:28.606Z,63.44
2023-01-20T12:46:21.904Z,63.36
2023-01-20T12:49:01.706Z,63.17
2023-01-20T12:51:38.443Z,63.24
2023-01-20T12:54:42.979Z,63.50
2023-01-20T12:57:46.942Z,63.66
2023-01-20T13:00:36.431Z,63.76
2023-01-20T13:03:58.217Z,63.89
2023-01-20T13:06:51.091Z,64.18
2023-01-20T13:09:27.882Z,64.28
2023-01-20T13:12:45.259Z,64.30
2023-01-20T13:15:55.151Z,64.61
2023-01-20T13:19:12.711Z,64.80
2023-01-20T13:21:42.031Z,64.84
2023-01-20T13:24:19.781Z,64.85
2023-01-20T13:26:48.886Z,64.98
2023-01-20T13:29:56.168Z,65.10
2023-01-20T13:32:47.567Z,65.29
2023-01-20T13:35:15.671Z,65.42
2023-01-20T13:38:04.064Z,65.43
2023-01-20T13:40:37.957Z,65.42
2023-01-20T13:43:26.881Z,65.60
2023-01-20T13:46:02.667Z,65.79
2023-01-20T13:48:34.740Z,65.89
2023-01-20T13:51:21.243Z,65.94
2023-01-20T13:53:49.047Z,66.06
2023-01-20T13:56:34.629Z,66.16
2023-01-20T13:59:02.444Z,66.17
2023-01-20T14:01:30.164Z,66.15
2023-01-20T14:04:21.477Z,66.34
2023-01-20T14:06:51.923Z,66.41
2023-01-20T14:09:25.701Z,66.44
2023-01-20T14:11:56.616Z,66.66
2023-01-20T14:14:26.221Z,66.76
2023-01-20T14:16:55.838Z,66.83
2023-01-20T14:19:34.130Z,66.88
2023-01-20T14:22:16.984Z,66.90
2023-01-20T14:24:49.515Z,67.16
2023-01-20T14:27:28.999Z,67.24
2023-01-20T14:30:12.546Z,67.41
2023-01-20T14:32:41.043Z,67.47
2023-01-20T14:35:31.821Z,67.61
2023-01-20T14:38:00.485Z,67.70
2023-01-20T14:40:32.128Z,67.71
2023-01-20T14:43:20.064Z,67.84
2023-01-20T14:45:52.480Z,68.02
2023-01-20T14:48:33.448Z,68.12
2023-01-20T14:51:03.676Z,68.09
2023-01-20T14:53:31.480Z,68.20
2023-01-20T14:56:09.125Z,68.28
2023-01-20T14:58:48.868Z,68.39
2023-01-20T15:01:25.653Z,68.59
2023-01-20T15:04:02.035Z,68.71
2023-01-20T15:06:30.045Z,68.67
2023-01-20T15:09:06.651Z,68.56
2023-01-20T15:11:35.867Z,68.65
2023-01-20T15:14:09.817Z,68.83
2023-01-20T15:16:44.210Z,68.90
2023-01-20T15:19:22.137Z,69.05
2023-01-20T15:21:58.273Z,69.10
2023-01-20T15:24:33.877Z,69.15
2023-01-20T15:27:16.488Z,69.17
2023-01-20T15:30:02.323Z,69.30
2023-01-20T15:32:30.185Z,69.39
2023-01-20T15:34:58.160Z,69.37
2023-01-20T15:37:26.056Z,69.55
2023-01-20T15:39:53.988Z,69.56
2023-01-20T15:42:23.591Z,69.62
2023-01-20T15:44:52.084Z,69.68
2023-01-20T15:47:30.448Z,69.81
2023-01-20T15:49:58.436Z,69.98
2023-01-20T15:52:26.277Z,70.10
2023-01-20T15:54:54.428Z,70.10
2023-01-20T15:57:23.010Z,70.03
2023-01-20T15:59:51.028Z,70.11
2023-01-20T16:02:22.832Z,70.13
2023-01-20T16:04:51.004Z,70.21
2023-01-20T16:07:20.686Z,70.31
2023-01-20T16:09:48.760Z,70.25
2023-01-20T16:12:19.201Z,70.28
2023-01-20T16:14:47.116Z,70.21
2023-01-20T16:17:20.708Z,70.21
2023-01-20T16:19:49.932Z,70.29
2023-01-20T16:22:17.895Z,70.36
2023-01-20T16:24:48.465Z,70.34
2023-01-20T16:27:22.597Z,70.33
2023-01-20T16:29:50.805Z,70.37
2023-01-20T16:32:22.264Z,70.43
2023-01-20T16:34:50.439Z,70.48
2023-01-20T16:37:18.471Z,70.52
2023-01-20T16:39:46.534Z,70.60
2023-01-20T16:42:16.170Z,70.67
2023-01-20T16:44:44.114Z,70.84
2023-01-20T16:47:12.013Z,70.94
2023-01-20T16:49:42.455Z,70.97
2023-01-20T16:52:11.386Z,71.06
2023-01-20T16:54:51.320Z,71.10
2023-01-20T16:57:20.181Z,71.06
2023-01-20T16:59:54.328Z,71.29
2023-01-20T17:02:22.260Z,71.21
2023-01-20T17:04:50.652Z,71.22
2023-01-20T17:07:19.320Z,71.26
2023-01-20T17:09:47.463Z,71.39
2023-01-20T17:12:16.192Z,71.39
2023-01-20T17:14:43.981Z,71.42
2023-01-20T17:17:12.819Z,71.31
2023-01-20T17:19:40.615Z,71.38
2023-01-20T17:22:08.665Z,71.47
2023-01-20T17:24:38.615Z,71.37
2023-01-20T17:27:06.393Z,71.41
2023-01-20T17:29:34.977Z,71.52
2023-01-20T17:32:02.937Z,71.62
2023-01-20T17:34:30.745Z,71.64
2023-01-20T17:36:59.392Z,71.63
2023-01-20T17:39:27.279Z,71.61
2023-01-20T17:41:58.209Z,71.69
2023-01-20T17:44:26.021Z,71.73
2023-01-20T17:46:53.842Z,71.76
2023-01-20T17:49:24.852Z,71.88
2023-01-20T17:51:52.754Z,71.90
2023-01-20T17:54:23.909Z,71.90
2023-01-20T17:56:51.862Z,71.92
2023-01-20T17:59:19.631Z,71.92
2023-01-20T18:01:51.656Z,71.88
2023-01-20T18:04:19.721Z,71.83
2023-01-20T18:06:48.496Z,71.91
2023-01-20T18:09:16.425Z,71.85
2023-01-20T18:11:44.809Z,71.79
2023-01-20T18:14:13.104Z,71.75
2023-01-20T18:16:41.380Z,71.78
2023-01-20T18:19:14.126Z,71.93
2023-01-20T18:21:43.788Z,72.07
2023-01-20T18:24:12.801Z,71.99
2023-01-20T18:26:43.555Z,71.93
2023-01-20T18:29:16.716Z,71.97
2023-01-20T18:31:45.807Z,72.07
2023-01-20T18:34:15.051Z,72.15
2023-01-20T18:36:45.615Z,72.30
2023-01-20T18:39:19.731Z,72.30
2023-01-20T18:41:49.308Z,72.27
2023-01-20T18:44:18.314Z,72.13
2023-01-20T18:46:46.555Z,72.08
2023-01-20T18:49:18.714Z,72.18
2023-01-20T18:51:49.058Z,72.13
2023-01-20T18:54:22.529Z,72.05
2023-01-20T18:56:50.214Z,72.05
2023-01-20T18:59:18.226Z,72.18
2023-01-20T19:01:46.644Z,72.29
2023-01-20T19:04:15.060Z,72.12
2023-01-20T19:06:44.789Z,72.08
2023-01-20T19:09:15.580Z,72.12
2023-01-20T19:11:43.638Z,72.09
2023-01-20T19:14:14.454Z,72.18
2023-01-20T19:16:44.605Z,72.25
2023-01-20T19:19:13.452Z,72.36
2023-01-20T19:21:41.684Z,72.33
2023-01-20T19:24:18.128Z,72.33
2023-01-20T19:26:46.945Z,72.31
2023-01-20T19:29:18.664Z,72.44
2023-01-20T19:31:48.411Z,72.53
2023-01-20T19:34:16.295Z,72.48
2023-01-20T19:36:44.405Z,72.56
2023-01-20T19:39:15.831Z,72.62
2023-01-20T19:41:44.023Z,72.64
2023-01-20T19:44:12.927Z,72.69
2023-01-20T19:46:41.016Z,72.68
2023-01-20T19:49:11.263Z,72.67
2023-01-20T19:51:39.152Z,72.59
2023-01-20T19:54:07.152Z,72.70
2023-01-20T19:56:35.698Z,72.86
2023-01-20T19:59:05.403Z,72.88
2023-01-20T20:01:36.200Z,72.81
2023-01-20T20:04:10.832Z,72.87
2023-01-20T20:06:48.589Z,72.95
2023-01-20T20:09:22.603Z,72.98
2023-01-20T20:11:50.542Z,73.03
2023-01-20T20:14:21.879Z,73.08
2023-01-20T20:16:50.373Z,73.02
2023-01-20T20:19:19.467Z,73.01
2023-01-20T20:21:47.581Z,72.95
2023-01-20T20:24:17.608Z,73.04
2023-01-20T20:26:47.153Z,73.00
2023-01-20T20:29:18.129Z,73.05
2023-01-20T20:31:46.456Z,73.11
2023-01-20T20:34:18.325Z,72.96
2023-01-20T20:36:46.525Z,72.95
2023-01-20T20:39:17.206Z,72.95
2023-01-20T20:41:47.000Z,73.04
2023-01-20T20:44:15.337Z,72.99
2023-01-20T20:46:43.384Z,73.01
2023-01-20T20:49:17.085Z,73.05
2023-01-20T20:51:45.378Z,73.12
2023-01-20T20:54:16.134Z,73.10
2023-01-20T20:56:44.951Z,72.97
2023-01-20T20:59:13.076Z,72.93
2023-01-20T21:01:41.289Z,72.87
2023-01-20T21:04:12.218Z,72.76
2023-01-20T21:06:40.055Z,72.89
2023-01-20T21:09:08.700Z,73.00
2023-01-20T21:11:38.438Z,73.00
2023-01-20T21:14:07.592Z,72.98
2023-01-20T21:16:35.784Z,73.16
2023-01-20T21:19:04.782Z,73.07
2023-01-20T21:21:33.002Z,73.02
2023-01-20T21:24:01.233Z,72.95
2023-01-20T21:26:30.703Z,73.08
2023-01-20T21:29:03.233Z,73.10
2023-01-20T21:31:32.021Z,73.10
2023-01-20T21:34:00.972Z,73.13
2023-01-20T21:36:31.159Z,73.02
2023-01-20T21:38:59.616Z,73.20
2023-01-20T21:41:31.720Z,73.23
2023-01-20T21:44:18.550Z,73.14
2023-01-20T21:46:46.818Z,73.23
2023-01-20T21:49:33.444Z,73.30
2023-01-20T21:52:20.143Z,73.22
2023-01-20T21:54:48.240Z,73.32
2023-01-20T21:57:16.246Z,73.45
2023-01-20T21:59:45.221Z,73.47
2023-01-20T22:02:14.175Z,73.35
2023-01-20T22:04:43.231Z,73.30
2023-01-20T22:07:11.523Z,73.36
2023-01-20T22:09:39.957Z,73.51
2023-01-20T22:12:08.953Z,73.49
2023-01-20T22:14:40.123Z,73.55
2023-01-20T22:17:10.484Z,73.58
2023-01-20T22:19:39.477Z,73.60
2023-01-20T22:22:07.555Z,73.53
2023-01-20T22:24:36.094Z,73.58
2023-01-20T22:27:04.017Z,73.69
2023-01-20T22:29:31.944Z,73.67
2023-01-20T22:32:02.647Z,73.77
2023-01-20T22:34:30.729Z,73.87
2023-01-20T22:36:59.921Z,73.82
2023-01-20T22:39:28.146Z,73.65
2023-01-20T22:41:56.087Z,73.74
2023-01-20T22:44:24.017Z,73.85
2023-01-20T22:46:51.935Z,73.85
2023-01-20T22:49:22.772Z,73.88
2023-01-20T22:51:54.728Z,73.87
2023-01-20T22:54:22.777Z,73.90
2023-01-20T22:56:50.820Z,73.85
2023-01-20T22:59:18.787Z,74.00
2023-01-20T23:01:46.716Z,74.13
2023-01-20T23:04:15.029Z,74.05
2023-01-20T23:06:43.177Z,73.98
2023-01-20T23:09:13.936Z,74.00
2023-01-20T23:11:41.811Z,74.03
2023-01-20T23:14:12.215Z,74.02
2023-01-20T23:16:41.824Z,74.13
2023-01-20T23:19:10.378Z,74.15
2023-01-20T23:21:38.278Z,74.12
2023-01-20T23:24:07.797Z,74.17
2023-01-20T23:26:35.724Z,74.09
2023-01-20T23:29:04.811Z,74.14
2023-01-20T23:31:34.634Z,74.00
2023-01-20T23:34:02.493Z,73.96
2023-01-20T23:36:30.350Z,74.02
2023-01-20T23:38:58.309Z,74.04
2023-01-20T23:41:26.084Z,74.14
2023-01-20T23:43:54.647Z,74.12
2023-01-20T23:46:22.723Z,74.21
2023-01-20T23:48:50.783Z,74.16
2023-01-20T23:51:18.732Z,74.23
2023-01-20T23:53:46.644Z,74.24
2023-01-20T23:56:20.942Z,74.28
2023-01-20T23:58:49.788Z,74.14
